This is the latest recevied weather packets stored in our database for station/object W2TAO. If no packets are shown the sender has not sent any weather packets the latest 10 day(s).
| Time | Temp. | Humidity | Pressure | Rain* | Wind** | Luminosity | Snow |
|---|---|---|---|---|---|---|---|
| 1778172434 | 13.33° C | 47% | 1011.8 hPa | 0 mm | - | 851 W/m² | - |
| 1778172131 | 12.78° C | 47% | 1011.8 hPa | 0 mm | - | 837 W/m² | - |
| 1778171828 | 12.78° C | 52% | 1012 hPa | 0 mm | - | 825 W/m² | - |
| 1778171526 | 12.22° C | 48% | 1012.2 hPa | 0 mm | - | 274 W/m² | - |
| 1778171222 | 12.22° C | 47% | 1012 hPa | 0 mm | - | 279 W/m² | - |
| 1778170918 | 12.78° C | 48% | 1012.1 hPa | 0 mm | - | 732 W/m² | - |
| 1778170615 | 12.78° C | 54% | 1012.3 hPa | 0 mm | - | 696 W/m² | - |
| 1778170311 | 13.33° C | 45% | 1012.2 hPa | 0 mm | - | 684 W/m² | - |
| 1778170007 | 12.78° C | 52% | 1012.3 hPa | 0 mm | - | 679 W/m² | - |
| 1778169704 | 12.22° C | 48% | 1012.3 hPa | 0 mm | - | 695 W/m² | - |
| 1778169400 | 11.67° C | 46% | 1012.3 hPa | 0 mm | - | 311 W/m² | - |
| 1778169097 | 12.22° C | 48% | 1012.3 hPa | 0 mm | - | 691 W/m² | - |
| 1778168793 | 12.22° C | 54% | 1012.6 hPa | 0 mm | - | 687 W/m² | - |
| 1778168491 | 12.22° C | 47% | 1012.8 hPa | 0 mm | - | 663 W/m² | - |
| 1778168187 | 11.67° C | 48% | 1012.8 hPa | 0 mm | - | 652 W/m² | - |
| 1778167884 | 11.67° C | 51% | 1012.6 hPa | 0 mm | - | 629 W/m² | - |
| 1778167580 | 11.11° C | 48% | 1012.8 hPa | 0 mm | - | 632 W/m² | - |
| 1778167276 | 11.11° C | 53% | 1012.9 hPa | 0 mm | - | 623 W/m² | - |
| 1778166972 | 11.11° C | 50% | 1012.9 hPa | 0 mm | - | 632 W/m² | - |
| 1778166669 | 11.11° C | 51% | 1012.9 hPa | 0 mm | - | 610 W/m² | - |
| 1778166361 | 11.11° C | 53% | 1013.1 hPa | 0 mm | - | 604 W/m² | - |
| 1778166058 | 11.11° C | 49% | 1012.9 hPa | 0 mm | - | 607 W/m² | - |
| 1778165752 | 11.67° C | 51% | 1013.1 hPa | 0 mm | - | 602 W/m² | - |
| 1778165451 | 11.11° C | 52% | 1013.1 hPa | 0 mm | - | 588 W/m² | - |
| 1778165147 | 10.56° C | 49% | 1013.2 hPa | 0 mm | - | 581 W/m² | - |
* Rain latest hour (hover to see other rain measurements)
** Current wind speed in m/s (hover to see current wind gust speed)